sensor_id;sensor_type;location;lat;lon;timestamp;P1;durP1;ratioP1;P2;durP2;ratioP2
77518;SDS011;66629;47.346;19.038;2023-01-29T00:01:09;37.78;;;21.13;;
77518;SDS011;66629;47.346;19.038;2023-01-29T00:03:35;37.58;;;22.50;;
77518;SDS011;66629;47.346;19.038;2023-01-29T00:06:03;37.63;;;21.48;;
77518;SDS011;66629;47.346;19.038;2023-01-29T00:08:34;37.45;;;22.25;;
77518;SDS011;66629;47.346;19.038;2023-01-29T00:11:01;35.20;;;21.08;;
77518;SDS011;66629;47.346;19.038;2023-01-29T00:13:30;39.05;;;22.23;;
77518;SDS011;66629;47.346;19.038;2023-01-29T00:15:56;38.30;;;21.95;;
77518;SDS011;66629;47.346;19.038;2023-01-29T00:18:23;39.83;;;22.52;;
77518;SDS011;66629;47.346;19.038;2023-01-29T00:20:49;34.13;;;21.00;;
77518;SDS011;66629;47.346;19.038;2023-01-29T00:23:15;35.67;;;20.95;;
77518;SDS011;66629;47.346;19.038;2023-01-29T00:25:41;38.65;;;22.90;;
77518;SDS011;66629;47.346;19.038;2023-01-29T00:28:07;36.13;;;19.50;;
77518;SDS011;66629;47.346;19.038;2023-01-29T00:30:32;40.70;;;20.33;;
77518;SDS011;66629;47.346;19.038;2023-01-29T00:32:58;38.90;;;21.10;;
77518;SDS011;66629;47.346;19.038;2023-01-29T00:35:23;36.15;;;19.88;;
77518;SDS011;66629;47.346;19.038;2023-01-29T00:37:49;35.65;;;20.27;;
77518;SDS011;66629;47.346;19.038;2023-01-29T00:40:14;36.50;;;20.00;;
77518;SDS011;66629;47.346;19.038;2023-01-29T00:42:40;44.38;;;22.85;;
77518;SDS011;66629;47.346;19.038;2023-01-29T00:45:24;39.70;;;21.52;;
77518;SDS011;66629;47.346;19.038;2023-01-29T00:47:49;41.55;;;22.20;;
77518;SDS011;66629;47.346;19.038;2023-01-29T00:50:15;39.80;;;22.58;;
77518;SDS011;66629;47.346;19.038;2023-01-29T00:52:40;39.45;;;22.67;;
77518;SDS011;66629;47.346;19.038;2023-01-29T00:55:06;38.00;;;21.67;;
77518;SDS011;66629;47.346;19.038;2023-01-29T00:57:32;39.15;;;22.85;;
77518;SDS011;66629;47.346;19.038;2023-01-29T00:59:59;42.13;;;22.25;;
77518;SDS011;66629;47.346;19.038;2023-01-29T01:02:25;37.05;;;21.55;;
77518;SDS011;66629;47.346;19.038;2023-01-29T01:05:10;38.20;;;20.90;;
77518;SDS011;66629;47.346;19.038;2023-01-29T01:07:47;38.70;;;20.30;;
77518;SDS011;66629;47.346;19.038;2023-01-29T01:10:15;38.58;;;20.67;;
77518;SDS011;66629;47.346;19.038;2023-01-29T01:12:46;40.75;;;22.75;;
77518;SDS011;66629;47.346;19.038;2023-01-29T01:15:23;36.03;;;21.02;;
77518;SDS011;66629;47.346;19.038;2023-01-29T01:17:51;37.13;;;20.52;;
77518;SDS011;66629;47.346;19.038;2023-01-29T01:20:18;38.75;;;21.48;;
77518;SDS011;66629;47.346;19.038;2023-01-29T01:22:44;40.63;;;21.05;;
77518;SDS011;66629;47.346;19.038;2023-01-29T01:25:09;39.55;;;20.13;;
77518;SDS011;66629;47.346;19.038;2023-01-29T01:27:35;39.72;;;20.98;;
77518;SDS011;66629;47.346;19.038;2023-01-29T01:30:05;40.30;;;21.70;;
77518;SDS011;66629;47.346;19.038;2023-01-29T01:32:32;35.97;;;20.50;;
77518;SDS011;66629;47.346;19.038;2023-01-29T01:34:58;34.50;;;19.00;;
77518;SDS011;66629;47.346;19.038;2023-01-29T01:37:23;36.30;;;19.70;;
77518;SDS011;66629;47.346;19.038;2023-01-29T01:39:49;37.78;;;20.77;;
77518;SDS011;66629;47.346;19.038;2023-01-29T01:42:15;39.20;;;21.42;;
77518;SDS011;66629;47.346;19.038;2023-01-29T01:47:15;38.83;;;21.42;;
77518;SDS011;66629;47.346;19.038;2023-01-29T01:49:44;36.47;;;19.58;;
77518;SDS011;66629;47.346;19.038;2023-01-29T01:52:11;37.15;;;19.77;;
77518;SDS011;66629;47.346;19.038;2023-01-29T01:54:38;38.05;;;20.73;;
77518;SDS011;66629;47.346;19.038;2023-01-29T01:57:11;40.15;;;20.45;;
77518;SDS011;66629;47.346;19.038;2023-01-29T01:59:45;37.45;;;20.63;;
77518;SDS011;66629;47.346;19.038;2023-01-29T02:02:13;39.75;;;21.65;;
77518;SDS011;66629;47.346;19.038;2023-01-29T02:04:58;37.83;;;19.75;;
77518;SDS011;66629;47.346;19.038;2023-01-29T02:07:43;32.55;;;19.90;;
77518;SDS011;66629;47.346;19.038;2023-01-29T02:10:31;37.22;;;19.95;;
77518;SDS011;66629;47.346;19.038;2023-01-29T02:13:03;34.10;;;18.90;;
77518;SDS011;66629;47.346;19.038;2023-01-29T02:15:30;34.92;;;18.95;;
77518;SDS011;66629;47.346;19.038;2023-01-29T02:17:55;36.97;;;20.25;;
77518;SDS011;66629;47.346;19.038;2023-01-29T02:20:28;38.25;;;21.23;;
77518;SDS011;66629;47.346;19.038;2023-01-29T02:25:46;35.45;;;19.63;;
77518;SDS011;66629;47.346;19.038;2023-01-29T02:31:06;35.90;;;20.13;;
77518;SDS011;66629;47.346;19.038;2023-01-29T02:52:08;37.45;;;20.98;;
77518;SDS011;66629;47.346;19.038;2023-01-29T02:54:43;36.63;;;20.38;;
77518;SDS011;66629;47.346;19.038;2023-01-29T03:02:37;36.72;;;20.65;;
77518;SDS011;66629;47.346;19.038;2023-01-29T03:05:10;34.72;;;18.77;;
77518;SDS011;66629;47.346;19.038;2023-01-29T03:07:42;32.22;;;18.55;;
77518;SDS011;66629;47.346;19.038;2023-01-29T03:10:25;35.50;;;19.00;;
77518;SDS011;66629;47.346;19.038;2023-01-29T03:12:58;33.67;;;17.95;;
77518;SDS011;66629;47.346;19.038;2023-01-29T03:15:30;35.47;;;18.48;;
77518;SDS011;66629;47.346;19.038;2023-01-29T03:18:07;32.35;;;18.42;;
77518;SDS011;66629;47.346;19.038;2023-01-29T03:20:40;30.02;;;16.95;;
77518;SDS011;66629;47.346;19.038;2023-01-29T03:23:19;36.50;;;18.05;;
77518;SDS011;66629;47.346;19.038;2023-01-29T03:26:06;31.83;;;17.02;;
77518;SDS011;66629;47.346;19.038;2023-01-29T03:28:51;31.40;;;17.63;;
77518;SDS011;66629;47.346;19.038;2023-01-29T03:34:22;27.60;;;14.82;;
77518;SDS011;66629;47.346;19.038;2023-01-29T03:37:02;32.13;;;17.35;;
77518;SDS011;66629;47.346;19.038;2023-01-29T03:39:32;32.17;;;17.05;;
77518;SDS011;66629;47.346;19.038;2023-01-29T03:42:03;29.88;;;17.25;;
77518;SDS011;66629;47.346;19.038;2023-01-29T04:01:10;30.42;;;15.85;;
77518;SDS011;66629;47.346;19.038;2023-01-29T04:03:55;30.23;;;15.57;;
77518;SDS011;66629;47.346;19.038;2023-01-29T04:06:28;25.75;;;15.25;;
77518;SDS011;66629;47.346;19.038;2023-01-29T04:11:32;29.80;;;16.45;;
77518;SDS011;66629;47.346;19.038;2023-01-29T04:14:02;27.55;;;16.08;;
77518;SDS011;66629;47.346;19.038;2023-01-29T04:16:32;30.23;;;16.67;;
77518;SDS011;66629;47.346;19.038;2023-01-29T04:19:01;28.77;;;15.32;;
77518;SDS011;66629;47.346;19.038;2023-01-29T04:21:27;24.00;;;15.07;;
77518;SDS011;66629;47.346;19.038;2023-01-29T04:23:55;27.13;;;16.23;;
77518;SDS011;66629;47.346;19.038;2023-01-29T04:34:52;24.48;;;13.60;;
77518;SDS011;66629;47.346;19.038;2023-01-29T04:40:19;23.30;;;13.45;;
77518;SDS011;66629;47.346;19.038;2023-01-29T04:42:56;24.77;;;13.60;;
77518;SDS011;66629;47.346;19.038;2023-01-29T04:54:33;23.23;;;12.55;;
77518;SDS011;66629;47.346;19.038;2023-01-29T04:56:55;19.30;;;11.57;;
77518;SDS011;66629;47.346;19.038;2023-01-29T04:59:32;21.15;;;12.10;;
77518;SDS011;66629;47.346;19.038;2023-01-29T05:02:03;25.27;;;12.98;;
77518;SDS011;66629;47.346;19.038;2023-01-29T05:04:30;21.90;;;13.60;;
77518;SDS011;66629;47.346;19.038;2023-01-29T05:07:02;22.52;;;13.43;;
77518;SDS011;66629;47.346;19.038;2023-01-29T05:09:30;24.20;;;13.90;;
77518;SDS011;66629;47.346;19.038;2023-01-29T05:11:57;21.75;;;13.05;;
77518;SDS011;66629;47.346;19.038;2023-01-29T05:14:24;24.67;;;13.27;;
77518;SDS011;66629;47.346;19.038;2023-01-29T05:16:52;22.55;;;12.95;;
77518;SDS011;66629;47.346;19.038;2023-01-29T05:19:21;25.65;;;13.35;;
77518;SDS011;66629;47.346;19.038;2023-01-29T05:21:47;25.33;;;14.00;;
77518;SDS011;66629;47.346;19.038;2023-01-29T05:24:17;23.60;;;12.52;;
77518;SDS011;66629;47.346;19.038;2023-01-29T05:26:45;23.30;;;13.75;;
77518;SDS011;66629;47.346;19.038;2023-01-29T05:29:31;22.42;;;12.43;;
77518;SDS011;66629;47.346;19.038;2023-01-29T05:31:57;26.52;;;14.60;;
77518;SDS011;66629;47.346;19.038;2023-01-29T05:34:22;24.60;;;13.13;;
77518;SDS011;66629;47.346;19.038;2023-01-29T05:36:48;29.50;;;14.60;;
77518;SDS011;66629;47.346;19.038;2023-01-29T05:39:14;22.27;;;12.80;;
77518;SDS011;66629;47.346;19.038;2023-01-29T05:41:39;27.77;;;13.80;;
77518;SDS011;66629;47.346;19.038;2023-01-29T05:44:05;23.52;;;13.80;;
77518;SDS011;66629;47.346;19.038;2023-01-29T05:46:30;28.15;;;14.68;;
77518;SDS011;66629;47.346;19.038;2023-01-29T05:48:56;23.02;;;11.50;;
77518;SDS011;66629;47.346;19.038;2023-01-29T05:51:21;24.77;;;13.27;;
77518;SDS011;66629;47.346;19.038;2023-01-29T05:53:47;24.65;;;12.98;;
77518;SDS011;66629;47.346;19.038;2023-01-29T05:56:12;26.42;;;13.13;;
77518;SDS011;66629;47.346;19.038;2023-01-29T05:58:38;27.17;;;14.88;;
77518;SDS011;66629;47.346;19.038;2023-01-29T06:03:43;29.05;;;14.32;;
77518;SDS011;66629;47.346;19.038;2023-01-29T06:06:09;26.17;;;13.30;;
77518;SDS011;66629;47.346;19.038;2023-01-29T06:08:35;27.40;;;13.30;;
77518;SDS011;66629;47.346;19.038;2023-01-29T06:11:00;28.33;;;14.15;;
77518;SDS011;66629;47.346;19.038;2023-01-29T06:13:26;30.10;;;18.17;;
77518;SDS011;66629;47.346;19.038;2023-01-29T06:15:52;26.90;;;14.68;;
77518;SDS011;66629;47.346;19.038;2023-01-29T06:18:17;23.05;;;13.70;;
77518;SDS011;66629;47.346;19.038;2023-01-29T06:20:43;22.02;;;13.20;;
77518;SDS011;66629;47.346;19.038;2023-01-29T06:23:08;27.95;;;17.83;;
77518;SDS011;66629;47.346;19.038;2023-01-29T06:25:34;24.33;;;13.70;;
77518;SDS011;66629;47.346;19.038;2023-01-29T06:27:59;20.40;;;12.57;;
77518;SDS011;66629;47.346;19.038;2023-01-29T06:30:24;21.80;;;13.35;;
77518;SDS011;66629;47.346;19.038;2023-01-29T06:32:54;23.17;;;13.07;;
77518;SDS011;66629;47.346;19.038;2023-01-29T06:35:22;21.90;;;13.50;;
77518;SDS011;66629;47.346;19.038;2023-01-29T06:37:49;22.15;;;13.30;;
77518;SDS011;66629;47.346;19.038;2023-01-29T06:40:14;18.23;;;12.32;;
77518;SDS011;66629;47.346;19.038;2023-01-29T06:42:40;22.88;;;14.43;;
77518;SDS011;66629;47.346;19.038;2023-01-29T06:45:05;19.73;;;13.35;;
77518;SDS011;66629;47.346;19.038;2023-01-29T06:47:31;22.83;;;15.38;;
77518;SDS011;66629;47.346;19.038;2023-01-29T06:49:56;20.30;;;12.65;;
77518;SDS011;66629;47.346;19.038;2023-01-29T06:52:22;23.20;;;14.57;;
77518;SDS011;66629;47.346;19.038;2023-01-29T06:54:49;22.10;;;15.18;;
77518;SDS011;66629;47.346;19.038;2023-01-29T06:57:14;20.90;;;13.30;;
77518;SDS011;66629;47.346;19.038;2023-01-29T06:59:40;21.17;;;13.95;;
77518;SDS011;66629;47.346;19.038;2023-01-29T07:02:05;24.65;;;15.98;;
77518;SDS011;66629;47.346;19.038;2023-01-29T07:04:31;16.17;;;10.63;;
77518;SDS011;66629;47.346;19.038;2023-01-29T07:06:57;19.65;;;12.35;;
77518;SDS011;66629;47.346;19.038;2023-01-29T07:09:23;22.55;;;13.35;;
77518;SDS011;66629;47.346;19.038;2023-01-29T07:11:49;21.15;;;13.43;;
77518;SDS011;66629;47.346;19.038;2023-01-29T07:14:14;21.88;;;12.63;;
77518;SDS011;66629;47.346;19.038;2023-01-29T07:16:40;19.45;;;11.13;;
77518;SDS011;66629;47.346;19.038;2023-01-29T07:19:05;19.20;;;13.43;;
77518;SDS011;66629;47.346;19.038;2023-01-29T07:21:30;24.08;;;14.88;;
77518;SDS011;66629;47.346;19.038;2023-01-29T07:23:56;18.88;;;12.02;;
77518;SDS011;66629;47.346;19.038;2023-01-29T07:26:22;20.25;;;13.60;;
77518;SDS011;66629;47.346;19.038;2023-01-29T07:28:47;20.10;;;12.73;;
77518;SDS011;66629;47.346;19.038;2023-01-29T07:31:13;17.90;;;11.82;;
77518;SDS011;66629;47.346;19.038;2023-01-29T07:33:39;15.27;;;9.82;;
77518;SDS011;66629;47.346;19.038;2023-01-29T07:36:07;19.90;;;12.07;;
77518;SDS011;66629;47.346;19.038;2023-01-29T07:38:33;20.58;;;12.35;;
77518;SDS011;66629;47.346;19.038;2023-01-29T07:40:59;19.85;;;12.60;;
77518;SDS011;66629;47.346;19.038;2023-01-29T07:43:24;18.33;;;12.50;;
77518;SDS011;66629;47.346;19.038;2023-01-29T07:45:49;19.35;;;12.65;;
77518;SDS011;66629;47.346;19.038;2023-01-29T07:48:15;18.45;;;12.52;;
77518;SDS011;66629;47.346;19.038;2023-01-29T07:50:41;19.77;;;12.55;;
77518;SDS011;66629;47.346;19.038;2023-01-29T07:53:10;17.75;;;11.25;;
77518;SDS011;66629;47.346;19.038;2023-01-29T07:55:38;17.08;;;10.75;;
77518;SDS011;66629;47.346;19.038;2023-01-29T07:58:03;18.65;;;13.05;;
77518;SDS011;66629;47.346;19.038;2023-01-29T08:00:29;17.80;;;10.45;;
77518;SDS011;66629;47.346;19.038;2023-01-29T08:03:05;19.23;;;12.90;;
77518;SDS011;66629;47.346;19.038;2023-01-29T08:05:33;21.95;;;12.40;;
77518;SDS011;66629;47.346;19.038;2023-01-29T08:07:59;19.90;;;11.88;;
77518;SDS011;66629;47.346;19.038;2023-01-29T08:10:24;19.52;;;11.85;;
77518;SDS011;66629;47.346;19.038;2023-01-29T08:12:57;18.52;;;11.63;;
77518;SDS011;66629;47.346;19.038;2023-01-29T08:15:23;18.20;;;12.30;;
77518;SDS011;66629;47.346;19.038;2023-01-29T08:17:49;18.67;;;10.38;;
77518;SDS011;66629;47.346;19.038;2023-01-29T08:20:16;17.88;;;9.88;;
77518;SDS011;66629;47.346;19.038;2023-01-29T08:22:42;17.48;;;10.90;;
77518;SDS011;66629;47.346;19.038;2023-01-29T08:25:07;16.70;;;11.52;;
77518;SDS011;66629;47.346;19.038;2023-01-29T08:27:33;15.80;;;10.48;;
77518;SDS011;66629;47.346;19.038;2023-01-29T08:29:58;17.92;;;11.65;;
77518;SDS011;66629;47.346;19.038;2023-01-29T08:32:24;21.50;;;12.27;;
77518;SDS011;66629;47.346;19.038;2023-01-29T08:34:49;19.70;;;11.52;;
77518;SDS011;66629;47.346;19.038;2023-01-29T08:37:14;19.30;;;11.02;;
77518;SDS011;66629;47.346;19.038;2023-01-29T08:39:40;16.50;;;13.00;;
77518;SDS011;66629;47.346;19.038;2023-01-29T08:42:05;16.15;;;10.50;;
77518;SDS011;66629;47.346;19.038;2023-01-29T08:44:31;15.75;;;10.48;;
77518;SDS011;66629;47.346;19.038;2023-01-29T08:46:56;18.17;;;10.95;;
77518;SDS011;66629;47.346;19.038;2023-01-29T08:49:21;16.30;;;10.65;;
77518;SDS011;66629;47.346;19.038;2023-01-29T08:51:47;16.50;;;10.85;;
77518;SDS011;66629;47.346;19.038;2023-01-29T08:54:13;16.92;;;11.82;;
77518;SDS011;66629;47.346;19.038;2023-01-29T08:56:38;15.80;;;8.90;;
77518;SDS011;66629;47.346;19.038;2023-01-29T08:59:03;15.38;;;11.05;;
77518;SDS011;66629;47.346;19.038;2023-01-29T09:01:29;13.38;;;9.27;;
77518;SDS011;66629;47.346;19.038;2023-01-29T09:03:54;24.95;;;14.50;;
77518;SDS011;66629;47.346;19.038;2023-01-29T09:06:20;14.90;;;9.55;;
77518;SDS011;66629;47.346;19.038;2023-01-29T09:08:45;15.80;;;8.82;;
77518;SDS011;66629;47.346;19.038;2023-01-29T09:11:11;14.43;;;9.70;;
77518;SDS011;66629;47.346;19.038;2023-01-29T09:13:37;15.43;;;10.25;;
77518;SDS011;66629;47.346;19.038;2023-01-29T09:16:02;15.45;;;10.00;;
77518;SDS011;66629;47.346;19.038;2023-01-29T09:18:29;16.70;;;9.80;;
77518;SDS011;66629;47.346;19.038;2023-01-29T09:20:55;18.98;;;11.75;;
77518;SDS011;66629;47.346;19.038;2023-01-29T09:23:20;13.50;;;9.10;;
77518;SDS011;66629;47.346;19.038;2023-01-29T09:25:46;15.73;;;8.77;;
77518;SDS011;66629;47.346;19.038;2023-01-29T09:28:11;19.23;;;12.52;;
77518;SDS011;66629;47.346;19.038;2023-01-29T09:30:37;14.80;;;10.02;;
77518;SDS011;66629;47.346;19.038;2023-01-29T09:33:03;12.77;;;7.60;;
77518;SDS011;66629;47.346;19.038;2023-01-29T09:35:29;14.38;;;9.50;;
77518;SDS011;66629;47.346;19.038;2023-01-29T09:37:55;13.88;;;9.27;;
77518;SDS011;66629;47.346;19.038;2023-01-29T09:40:24;14.98;;;10.00;;
77518;SDS011;66629;47.346;19.038;2023-01-29T09:45:57;12.95;;;9.18;;
77518;SDS011;66629;47.346;19.038;2023-01-29T09:48:30;14.63;;;9.43;;
77518;SDS011;66629;47.346;19.038;2023-01-29T09:50:58;14.38;;;10.25;;
77518;SDS011;66629;47.346;19.038;2023-01-29T09:53:39;15.18;;;8.35;;
77518;SDS011;66629;47.346;19.038;2023-01-29T09:56:15;14.05;;;8.07;;
77518;SDS011;66629;47.346;19.038;2023-01-29T09:58:44;14.50;;;9.20;;
77518;SDS011;66629;47.346;19.038;2023-01-29T10:20:23;12.98;;;8.93;;
77518;SDS011;66629;47.346;19.038;2023-01-29T10:22:55;15.80;;;10.25;;
77518;SDS011;66629;47.346;19.038;2023-01-29T10:25:22;15.90;;;9.07;;
77518;SDS011;66629;47.346;19.038;2023-01-29T10:27:49;18.55;;;12.40;;
77518;SDS011;66629;47.346;19.038;2023-01-29T10:30:38;14.32;;;10.20;;
77518;SDS011;66629;47.346;19.038;2023-01-29T10:33:05;14.32;;;8.70;;
77518;SDS011;66629;47.346;19.038;2023-01-29T10:35:41;17.58;;;10.68;;
77518;SDS011;66629;47.346;19.038;2023-01-29T10:43:48;15.32;;;9.13;;
77518;SDS011;66629;47.346;19.038;2023-01-29T10:55:13;10.68;;;7.07;;
77518;SDS011;66629;47.346;19.038;2023-01-29T11:00:29;11.85;;;7.40;;
77518;SDS011;66629;47.346;19.038;2023-01-29T11:03:07;11.68;;;7.47;;
77518;SDS011;66629;47.346;19.038;2023-01-29T11:06:00;11.32;;;7.95;;
77518;SDS011;66629;47.346;19.038;2023-01-29T11:11:29;12.57;;;8.13;;
77518;SDS011;66629;47.346;19.038;2023-01-29T11:14:02;14.77;;;8.57;;
77518;SDS011;66629;47.346;19.038;2023-01-29T11:16:39;12.77;;;8.15;;
77518;SDS011;66629;47.346;19.038;2023-01-29T11:19:06;12.73;;;7.80;;
77518;SDS011;66629;47.346;19.038;2023-01-29T11:21:33;13.32;;;9.00;;
77518;SDS011;66629;47.346;19.038;2023-01-29T11:24:20;14.80;;;9.68;;
77518;SDS011;66629;47.346;19.038;2023-01-29T11:26:47;14.73;;;9.70;;
77518;SDS011;66629;47.346;19.038;2023-01-29T11:32:12;15.68;;;9.05;;
77518;SDS011;66629;47.346;19.038;2023-01-29T11:37:44;11.80;;;8.35;;
77518;SDS011;66629;47.346;19.038;2023-01-29T11:43:17;11.82;;;8.73;;
77518;SDS011;66629;47.346;19.038;2023-01-29T11:45:44;16.20;;;8.55;;
77518;SDS011;66629;47.346;19.038;2023-01-29T11:48:14;11.52;;;7.55;;
77518;SDS011;66629;47.346;19.038;2023-01-29T11:50:41;12.50;;;8.15;;
77518;SDS011;66629;47.346;19.038;2023-01-29T11:53:20;13.88;;;10.13;;
77518;SDS011;66629;47.346;19.038;2023-01-29T11:55:50;12.73;;;8.77;;
77518;SDS011;66629;47.346;19.038;2023-01-29T11:58:17;13.38;;;8.57;;
77518;SDS011;66629;47.346;19.038;2023-01-29T12:00:50;14.75;;;10.48;;
77518;SDS011;66629;47.346;19.038;2023-01-29T12:03:52;11.60;;;8.32;;
77518;SDS011;66629;47.346;19.038;2023-01-29T12:08:51;12.32;;;8.32;;
77518;SDS011;66629;47.346;19.038;2023-01-29T12:11:31;13.30;;;7.82;;
77518;SDS011;66629;47.346;19.038;2023-01-29T12:14:02;11.55;;;7.22;;
77518;SDS011;66629;47.346;19.038;2023-01-29T12:21:54;13.43;;;8.13;;
77518;SDS011;66629;47.346;19.038;2023-01-29T12:32:52;13.45;;;8.90;;
77518;SDS011;66629;47.346;19.038;2023-01-29T12:35:34;12.68;;;8.65;;
77518;SDS011;66629;47.346;19.038;2023-01-29T12:38:14;11.10;;;7.05;;
77518;SDS011;66629;47.346;19.038;2023-01-29T12:41:29;11.48;;;7.85;;
77518;SDS011;66629;47.346;19.038;2023-01-29T12:44:20;11.00;;;7.95;;
77518;SDS011;66629;47.346;19.038;2023-01-29T12:46:51;11.45;;;7.72;;
77518;SDS011;66629;47.346;19.038;2023-01-29T12:49:31;12.52;;;9.35;;
77518;SDS011;66629;47.346;19.038;2023-01-29T12:54:36;11.68;;;7.45;;
77518;SDS011;66629;47.346;19.038;2023-01-29T12:57:22;9.18;;;6.47;;
77518;SDS011;66629;47.346;19.038;2023-01-29T12:59:53;10.43;;;6.75;;
77518;SDS011;66629;47.346;19.038;2023-01-29T13:05:06;13.85;;;9.55;;
77518;SDS011;66629;47.346;19.038;2023-01-29T13:07:56;15.27;;;10.50;;
77518;SDS011;66629;47.346;19.038;2023-01-29T13:10:28;11.05;;;8.38;;
77518;SDS011;66629;47.346;19.038;2023-01-29T13:13:00;9.35;;;6.88;;
77518;SDS011;66629;47.346;19.038;2023-01-29T13:15:39;11.20;;;8.38;;
77518;SDS011;66629;47.346;19.038;2023-01-29T13:21:24;13.77;;;10.05;;
77518;SDS011;66629;47.346;19.038;2023-01-29T13:23:55;13.07;;;9.73;;
77518;SDS011;66629;47.346;19.038;2023-01-29T13:26:23;12.43;;;8.90;;
77518;SDS011;66629;47.346;19.038;2023-01-29T13:28:50;15.18;;;11.25;;
77518;SDS011;66629;47.346;19.038;2023-01-29T13:31:22;10.38;;;7.85;;
77518;SDS011;66629;47.346;19.038;2023-01-29T13:33:52;10.02;;;7.10;;
77518;SDS011;66629;47.346;19.038;2023-01-29T13:36:24;10.80;;;8.88;;
77518;SDS011;66629;47.346;19.038;2023-01-29T13:39:03;11.82;;;7.68;;
77518;SDS011;66629;47.346;19.038;2023-01-29T13:41:37;8.90;;;6.18;;
77518;SDS011;66629;47.346;19.038;2023-01-29T13:44:20;8.38;;;6.15;;
77518;SDS011;66629;47.346;19.038;2023-01-29T13:46:55;9.63;;;7.25;;
77518;SDS011;66629;47.346;19.038;2023-01-29T13:49:32;9.75;;;7.00;;
77518;SDS011;66629;47.346;19.038;2023-01-29T13:54:52;11.38;;;7.95;;
77518;SDS011;66629;47.346;19.038;2023-01-29T14:00:53;13.03;;;8.10;;
77518;SDS011;66629;47.346;19.038;2023-01-29T14:07:59;23.70;;;14.10;;
77518;SDS011;66629;47.346;19.038;2023-01-29T14:10:37;26.70;;;16.48;;
77518;SDS011;66629;47.346;19.038;2023-01-29T14:15:32;15.40;;;11.30;;
77518;SDS011;66629;47.346;19.038;2023-01-29T14:20:58;13.32;;;9.43;;
77518;SDS011;66629;47.346;19.038;2023-01-29T14:34:29;11.75;;;8.80;;
77518;SDS011;66629;47.346;19.038;2023-01-29T14:37:00;10.05;;;7.63;;
77518;SDS011;66629;47.346;19.038;2023-01-29T14:39:42;12.48;;;8.77;;
77518;SDS011;66629;47.346;19.038;2023-01-29T14:42:15;18.67;;;14.38;;
77518;SDS011;66629;47.346;19.038;2023-01-29T14:47:56;13.73;;;7.97;;
77518;SDS011;66629;47.346;19.038;2023-01-29T14:50:01;12.75;;;8.98;;
77518;SDS011;66629;47.346;19.038;2023-01-29T14:52:48;12.00;;;9.20;;
77518;SDS011;66629;47.346;19.038;2023-01-29T14:57:54;14.48;;;10.15;;
77518;SDS011;66629;47.346;19.038;2023-01-29T15:00:35;12.77;;;8.40;;
77518;SDS011;66629;47.346;19.038;2023-01-29T15:03:03;10.98;;;8.43;;
77518;SDS011;66629;47.346;19.038;2023-01-29T15:05:36;11.75;;;9.13;;
77518;SDS011;66629;47.346;19.038;2023-01-29T15:08:07;12.32;;;9.07;;
77518;SDS011;66629;47.346;19.038;2023-01-29T15:10:44;13.27;;;9.05;;
77518;SDS011;66629;47.346;19.038;2023-01-29T15:13:36;15.88;;;11.63;;
77518;SDS011;66629;47.346;19.038;2023-01-29T15:16:16;16.08;;;10.32;;
77518;SDS011;66629;47.346;19.038;2023-01-29T15:18:46;18.48;;;11.95;;
77518;SDS011;66629;47.346;19.038;2023-01-29T15:21:15;16.48;;;10.77;;
77518;SDS011;66629;47.346;19.038;2023-01-29T15:23:42;16.98;;;10.77;;
77518;SDS011;66629;47.346;19.038;2023-01-29T15:26:09;16.33;;;10.70;;
77518;SDS011;66629;47.346;19.038;2023-01-29T15:28:37;14.40;;;9.65;;
77518;SDS011;66629;47.346;19.038;2023-01-29T15:31:03;14.38;;;10.15;;
77518;SDS011;66629;47.346;19.038;2023-01-29T15:33:36;16.10;;;11.38;;
77518;SDS011;66629;47.346;19.038;2023-01-29T15:36:05;19.50;;;12.18;;
77518;SDS011;66629;47.346;19.038;2023-01-29T15:38:31;17.52;;;12.00;;
77518;SDS011;66629;47.346;19.038;2023-01-29T15:40:57;22.65;;;13.65;;
77518;SDS011;66629;47.346;19.038;2023-01-29T15:43:26;13.80;;;10.20;;
77518;SDS011;66629;47.346;19.038;2023-01-29T15:45:59;14.13;;;9.48;;
77518;SDS011;66629;47.346;19.038;2023-01-29T15:48:39;15.02;;;10.60;;
77518;SDS011;66629;47.346;19.038;2023-01-29T15:51:07;15.02;;;10.38;;
77518;SDS011;66629;47.346;19.038;2023-01-29T15:53:46;17.08;;;10.73;;
77518;SDS011;66629;47.346;19.038;2023-01-29T15:56:17;17.77;;;11.13;;
77518;SDS011;66629;47.346;19.038;2023-01-29T15:58:45;14.38;;;10.13;;
77518;SDS011;66629;47.346;19.038;2023-01-29T16:01:13;18.80;;;11.73;;
77518;SDS011;66629;47.346;19.038;2023-01-29T16:03:39;15.27;;;11.35;;
77518;SDS011;66629;47.346;19.038;2023-01-29T16:06:05;17.23;;;11.80;;
77518;SDS011;66629;47.346;19.038;2023-01-29T16:08:32;14.82;;;10.20;;
77518;SDS011;66629;47.346;19.038;2023-01-29T16:10:59;14.77;;;10.95;;
77518;SDS011;66629;47.346;19.038;2023-01-29T16:13:30;16.83;;;11.57;;
77518;SDS011;66629;47.346;19.038;2023-01-29T16:18:29;17.75;;;12.68;;
77518;SDS011;66629;47.346;19.038;2023-01-29T16:20:58;18.83;;;12.65;;
77518;SDS011;66629;47.346;19.038;2023-01-29T16:23:33;17.88;;;12.38;;
77518;SDS011;66629;47.346;19.038;2023-01-29T16:26:01;19.38;;;13.30;;
77518;SDS011;66629;47.346;19.038;2023-01-29T16:28:31;21.73;;;16.42;;
77518;SDS011;66629;47.346;19.038;2023-01-29T16:30:58;21.10;;;15.85;;
77518;SDS011;66629;47.346;19.038;2023-01-29T16:33:42;23.58;;;14.63;;
77518;SDS011;66629;47.346;19.038;2023-01-29T16:36:16;20.52;;;14.48;;
77518;SDS011;66629;47.346;19.038;2023-01-29T16:38:48;24.83;;;16.00;;
77518;SDS011;66629;47.346;19.038;2023-01-29T16:43:50;26.38;;;18.20;;
77518;SDS011;66629;47.346;19.038;2023-01-29T16:46:44;29.27;;;19.27;;
77518;SDS011;66629;47.346;19.038;2023-01-29T16:51:51;31.58;;;18.52;;
77518;SDS011;66629;47.346;19.038;2023-01-29T16:54:19;57.03;;;30.50;;
77518;SDS011;66629;47.346;19.038;2023-01-29T16:56:49;41.17;;;21.80;;
77518;SDS011;66629;47.346;19.038;2023-01-29T16:59:18;36.72;;;22.35;;
77518;SDS011;66629;47.346;19.038;2023-01-29T17:01:50;32.77;;;20.03;;
77518;SDS011;66629;47.346;19.038;2023-01-29T17:04:17;33.92;;;20.70;;
77518;SDS011;66629;47.346;19.038;2023-01-29T17:06:44;29.85;;;18.67;;
77518;SDS011;66629;47.346;19.038;2023-01-29T17:14:39;23.27;;;14.68;;
77518;SDS011;66629;47.346;19.038;2023-01-29T17:17:13;25.67;;;15.25;;
77518;SDS011;66629;47.346;19.038;2023-01-29T17:19:40;27.13;;;16.88;;
77518;SDS011;66629;47.346;19.038;2023-01-29T17:22:05;28.42;;;18.50;;
77518;SDS011;66629;47.346;19.038;2023-01-29T17:24:32;29.15;;;17.98;;
77518;SDS011;66629;47.346;19.038;2023-01-29T17:27:01;29.60;;;20.13;;
77518;SDS011;66629;47.346;19.038;2023-01-29T17:29:27;31.73;;;19.65;;
77518;SDS011;66629;47.346;19.038;2023-01-29T17:31:56;28.20;;;18.85;;
77518;SDS011;66629;47.346;19.038;2023-01-29T17:34:24;31.33;;;20.35;;
77518;SDS011;66629;47.346;19.038;2023-01-29T17:36:49;32.17;;;19.63;;
77518;SDS011;66629;47.346;19.038;2023-01-29T17:39:21;36.33;;;23.95;;
77518;SDS011;66629;47.346;19.038;2023-01-29T17:41:57;32.00;;;21.05;;
77518;SDS011;66629;47.346;19.038;2023-01-29T17:44:23;25.30;;;17.55;;
77518;SDS011;66629;47.346;19.038;2023-01-29T17:46:51;27.42;;;18.38;;